sensor_id;sensor_type;location;lat;lon;timestamp;P1;durP1;ratioP1;P2;durP2;ratioP2
36597;SDS011;22607;49.550;11.940;2023-12-20T00:01:06;10.23;;;4.32;;
36597;SDS011;22607;49.550;11.940;2023-12-20T00:03:33;10.23;;;4.57;;
36597;SDS011;22607;49.550;11.940;2023-12-20T00:06:08;9.95;;;3.83;;
36597;SDS011;22607;49.550;11.940;2023-12-20T00:08:35;10.50;;;5.07;;
36597;SDS011;22607;49.550;11.940;2023-12-20T00:11:02;9.45;;;4.50;;
36597;SDS011;22607;49.550;11.940;2023-12-20T00:13:29;12.75;;;4.32;;
36597;SDS011;22607;49.550;11.940;2023-12-20T00:15:55;11.60;;;5.15;;
36597;SDS011;22607;49.550;11.940;2023-12-20T00:18:22;8.90;;;3.60;;
36597;SDS011;22607;49.550;11.940;2023-12-20T00:20:49;10.38;;;5.03;;
36597;SDS011;22607;49.550;11.940;2023-12-20T00:23:16;11.85;;;5.22;;
36597;SDS011;22607;49.550;11.940;2023-12-20T00:25:42;10.15;;;4.45;;
36597;SDS011;22607;49.550;11.940;2023-12-20T00:28:09;11.45;;;5.30;;
36597;SDS011;22607;49.550;11.940;2023-12-20T00:30:53;11.15;;;4.82;;
36597;SDS011;22607;49.550;11.940;2023-12-20T00:34:29;12.60;;;5.47;;
36597;SDS011;22607;49.550;11.940;2023-12-20T00:43:59;12.82;;;5.88;;
36597;SDS011;22607;49.550;11.940;2023-12-20T00:47:16;13.43;;;5.90;;
36597;SDS011;22607;49.550;11.940;2023-12-20T00:50:18;12.43;;;5.78;;
36597;SDS011;22607;49.550;11.940;2023-12-20T00:53:24;12.52;;;5.45;;
36597;SDS011;22607;49.550;11.940;2023-12-20T00:56:50;11.88;;;5.15;;
36597;SDS011;22607;49.550;11.940;2023-12-20T01:00:08;11.65;;;5.10;;
36597;SDS011;22607;49.550;11.940;2023-12-20T01:03:33;12.48;;;5.72;;
36597;SDS011;22607;49.550;11.940;2023-12-20T01:07:02;12.32;;;5.45;;
36597;SDS011;22607;49.550;11.940;2023-12-20T01:10:46;13.52;;;6.35;;
36597;SDS011;22607;49.550;11.940;2023-12-20T01:14:31;14.15;;;5.47;;
36597;SDS011;22607;49.550;11.940;2023-12-20T01:17:49;12.70;;;6.13;;
36597;SDS011;22607;49.550;11.940;2023-12-20T01:21:17;12.52;;;6.32;;
36597;SDS011;22607;49.550;11.940;2023-12-20T01:24:11;11.02;;;5.05;;
36597;SDS011;22607;49.550;11.940;2023-12-20T01:27:28;13.48;;;6.60;;
36597;SDS011;22607;49.550;11.940;2023-12-20T01:30:46;14.05;;;6.40;;
36597;SDS011;22607;49.550;11.940;2023-12-20T01:33:56;15.77;;;8.18;;
36597;SDS011;22607;49.550;11.940;2023-12-20T01:36:51;13.13;;;6.40;;
36597;SDS011;22607;49.550;11.940;2023-12-20T01:40:02;14.60;;;7.32;;
36597;SDS011;22607;49.550;11.940;2023-12-20T01:43:32;15.27;;;7.43;;
36597;SDS011;22607;49.550;11.940;2023-12-20T01:46:46;15.73;;;7.90;;
36597;SDS011;22607;49.550;11.940;2023-12-20T01:49:56;14.93;;;6.78;;
36597;SDS011;22607;49.550;11.940;2023-12-20T01:53:07;17.25;;;8.15;;
36597;SDS011;22607;49.550;11.940;2023-12-20T01:56:43;14.80;;;7.32;;
36597;SDS011;22607;49.550;11.940;2023-12-20T01:59:56;15.38;;;7.55;;
36597;SDS011;22607;49.550;11.940;2023-12-20T02:02:53;13.98;;;6.05;;
36597;SDS011;22607;49.550;11.940;2023-12-20T02:06:00;13.90;;;6.78;;
36597;SDS011;22607;49.550;11.940;2023-12-20T02:08:42;14.43;;;7.47;;
36597;SDS011;22607;49.550;11.940;2023-12-20T02:15:58;12.57;;;5.85;;
36597;SDS011;22607;49.550;11.940;2023-12-20T02:19:05;15.77;;;7.65;;
36597;SDS011;22607;49.550;11.940;2023-12-20T02:22:40;14.38;;;6.10;;
36597;SDS011;22607;49.550;11.940;2023-12-20T02:25:59;11.93;;;5.40;;
36597;SDS011;22607;49.550;11.940;2023-12-20T02:29:11;11.50;;;4.75;;
36597;SDS011;22607;49.550;11.940;2023-12-20T02:32:37;10.75;;;4.80;;
36597;SDS011;22607;49.550;11.940;2023-12-20T02:36:02;11.37;;;5.30;;
36597;SDS011;22607;49.550;11.940;2023-12-20T02:39:25;10.13;;;4.50;;
36597;SDS011;22607;49.550;11.940;2023-12-20T02:43:09;11.50;;;4.68;;
36597;SDS011;22607;49.550;11.940;2023-12-20T02:49:11;9.23;;;3.35;;
36597;SDS011;22607;49.550;11.940;2023-12-20T02:56:28;8.90;;;3.10;;
36597;SDS011;22607;49.550;11.940;2023-12-20T02:59:42;10.20;;;3.50;;
36597;SDS011;22607;49.550;11.940;2023-12-20T03:02:58;10.20;;;3.40;;
36597;SDS011;22607;49.550;11.940;2023-12-20T03:06:11;8.27;;;2.85;;
36597;SDS011;22607;49.550;11.940;2023-12-20T03:09:13;7.20;;;2.30;;
36597;SDS011;22607;49.550;11.940;2023-12-20T03:12:48;6.03;;;1.60;;
36597;SDS011;22607;49.550;11.940;2023-12-20T03:15:49;5.30;;;1.48;;
36597;SDS011;22607;49.550;11.940;2023-12-20T03:18:29;5.55;;;1.58;;
36597;SDS011;22607;49.550;11.940;2023-12-20T03:21:39;5.65;;;1.42;;
36597;SDS011;22607;49.550;11.940;2023-12-20T03:24:43;5.85;;;1.42;;
36597;SDS011;22607;49.550;11.940;2023-12-20T03:27:33;5.40;;;1.40;;
36597;SDS011;22607;49.550;11.940;2023-12-20T03:30:33;3.85;;;1.27;;
36597;SDS011;22607;49.550;11.940;2023-12-20T03:33:47;2.83;;;0.90;;
36597;SDS011;22607;49.550;11.940;2023-12-20T03:37:12;2.03;;;0.77;;
36597;SDS011;22607;49.550;11.940;2023-12-20T03:39:57;3.70;;;1.25;;
36597;SDS011;22607;49.550;11.940;2023-12-20T03:42:56;1.27;;;0.55;;
36597;SDS011;22607;49.550;11.940;2023-12-20T03:49:38;2.22;;;0.50;;
36597;SDS011;22607;49.550;11.940;2023-12-20T03:56:02;3.22;;;0.60;;
36597;SDS011;22607;49.550;11.940;2023-12-20T03:59:28;0.80;;;0.40;;
36597;SDS011;22607;49.550;11.940;2023-12-20T04:02:36;1.17;;;0.50;;
36597;SDS011;22607;49.550;11.940;2023-12-20T04:17:08;1.95;;;0.60;;
36597;SDS011;22607;49.550;11.940;2023-12-20T04:21:02;2.20;;;0.60;;
36597;SDS011;22607;49.550;11.940;2023-12-20T04:24:19;0.95;;;0.40;;
36597;SDS011;22607;49.550;11.940;2023-12-20T04:27:08;2.13;;;0.60;;
36597;SDS011;22607;49.550;11.940;2023-12-20T04:29:44;1.90;;;0.70;;
36597;SDS011;22607;49.550;11.940;2023-12-20T04:32:32;2.60;;;0.85;;
36597;SDS011;22607;49.550;11.940;2023-12-20T04:35:17;2.97;;;1.00;;
36597;SDS011;22607;49.550;11.940;2023-12-20T04:38:17;1.95;;;0.80;;
36597;SDS011;22607;49.550;11.940;2023-12-20T04:41:21;1.45;;;0.60;;
36597;SDS011;22607;49.550;11.940;2023-12-20T04:44:17;1.92;;;0.70;;
36597;SDS011;22607;49.550;11.940;2023-12-20T04:46:56;1.65;;;0.70;;
36597;SDS011;22607;49.550;11.940;2023-12-20T04:49:47;1.75;;;0.70;;
36597;SDS011;22607;49.550;11.940;2023-12-20T04:52:14;1.42;;;0.77;;
36597;SDS011;22607;49.550;11.940;2023-12-20T04:54:41;2.47;;;0.80;;
36597;SDS011;22607;49.550;11.940;2023-12-20T04:57:10;3.17;;;0.70;;
36597;SDS011;22607;49.550;11.940;2023-12-20T04:59:37;1.60;;;0.60;;
36597;SDS011;22607;49.550;11.940;2023-12-20T05:02:03;1.52;;;0.70;;
36597;SDS011;22607;49.550;11.940;2023-12-20T05:04:30;1.10;;;0.50;;
36597;SDS011;22607;49.550;11.940;2023-12-20T05:06:56;1.58;;;0.50;;
36597;SDS011;22607;49.550;11.940;2023-12-20T05:09:23;13.43;;;4.95;;
36597;SDS011;22607;49.550;11.940;2023-12-20T05:11:50;3.38;;;1.40;;
36597;SDS011;22607;49.550;11.940;2023-12-20T05:14:16;4.53;;;1.33;;
36597;SDS011;22607;49.550;11.940;2023-12-20T05:16:43;2.08;;;0.73;;
36597;SDS011;22607;49.550;11.940;2023-12-20T05:19:11;2.38;;;0.70;;
36597;SDS011;22607;49.550;11.940;2023-12-20T05:21:38;8.43;;;2.13;;
36597;SDS011;22607;49.550;11.940;2023-12-20T05:24:11;7.78;;;2.40;;
36597;SDS011;22607;49.550;11.940;2023-12-20T05:26:39;3.33;;;1.00;;
36597;SDS011;22607;49.550;11.940;2023-12-20T05:29:06;2.55;;;0.90;;
36597;SDS011;22607;49.550;11.940;2023-12-20T05:31:32;2.25;;;0.70;;
36597;SDS011;22607;49.550;11.940;2023-12-20T05:33:59;1.27;;;0.60;;
36597;SDS011;22607;49.550;11.940;2023-12-20T05:36:27;1.35;;;0.60;;
36597;SDS011;22607;49.550;11.940;2023-12-20T05:38:54;3.92;;;0.98;;
36597;SDS011;22607;49.550;11.940;2023-12-20T05:41:21;2.72;;;0.98;;
36597;SDS011;22607;49.550;11.940;2023-12-20T05:43:48;1.73;;;0.80;;
36597;SDS011;22607;49.550;11.940;2023-12-20T05:46:14;2.53;;;0.90;;
36597;SDS011;22607;49.550;11.940;2023-12-20T05:48:41;2.70;;;0.90;;
36597;SDS011;22607;49.550;11.940;2023-12-20T05:51:07;1.60;;;0.77;;
36597;SDS011;22607;49.550;11.940;2023-12-20T05:53:39;2.42;;;0.93;;
36597;SDS011;22607;49.550;11.940;2023-12-20T05:56:05;4.20;;;1.23;;
36597;SDS011;22607;49.550;11.940;2023-12-20T05:58:38;3.65;;;1.10;;
36597;SDS011;22607;49.550;11.940;2023-12-20T06:01:06;4.25;;;1.00;;
36597;SDS011;22607;49.550;11.940;2023-12-20T06:03:35;2.53;;;0.85;;
36597;SDS011;22607;49.550;11.940;2023-12-20T06:06:05;4.88;;;1.00;;
36597;SDS011;22607;49.550;11.940;2023-12-20T06:08:42;2.42;;;0.98;;
36597;SDS011;22607;49.550;11.940;2023-12-20T06:11:10;3.83;;;1.30;;
36597;SDS011;22607;49.550;11.940;2023-12-20T06:13:36;2.88;;;1.15;;
36597;SDS011;22607;49.550;11.940;2023-12-20T06:16:04;4.13;;;1.27;;
36597;SDS011;22607;49.550;11.940;2023-12-20T06:18:32;3.92;;;1.33;;
36597;SDS011;22607;49.550;11.940;2023-12-20T06:20:59;3.90;;;1.23;;
36597;SDS011;22607;49.550;11.940;2023-12-20T06:23:25;3.15;;;1.00;;
36597;SDS011;22607;49.550;11.940;2023-12-20T06:25:53;2.88;;;1.00;;
36597;SDS011;22607;49.550;11.940;2023-12-20T06:28:20;3.13;;;0.90;;
36597;SDS011;22607;49.550;11.940;2023-12-20T06:30:46;3.10;;;1.13;;
36597;SDS011;22607;49.550;11.940;2023-12-20T06:33:15;2.90;;;0.93;;
36597;SDS011;22607;49.550;11.940;2023-12-20T06:35:42;3.92;;;1.27;;
36597;SDS011;22607;49.550;11.940;2023-12-20T06:38:10;4.57;;;1.08;;
36597;SDS011;22607;49.550;11.940;2023-12-20T06:40:36;3.40;;;1.08;;
36597;SDS011;22607;49.550;11.940;2023-12-20T06:43:03;3.22;;;1.13;;
36597;SDS011;22607;49.550;11.940;2023-12-20T06:45:41;3.83;;;1.13;;
36597;SDS011;22607;49.550;11.940;2023-12-20T06:48:08;3.10;;;1.10;;
36597;SDS011;22607;49.550;11.940;2023-12-20T06:50:37;1.92;;;0.85;;
36597;SDS011;22607;49.550;11.940;2023-12-20T06:53:06;3.03;;;1.05;;
36597;SDS011;22607;49.550;11.940;2023-12-20T06:55:34;5.85;;;1.60;;
36597;SDS011;22607;49.550;11.940;2023-12-20T06:58:02;5.55;;;1.40;;
36597;SDS011;22607;49.550;11.940;2023-12-20T07:00:28;7.32;;;2.10;;
36597;SDS011;22607;49.550;11.940;2023-12-20T07:03:00;5.32;;;1.60;;
36597;SDS011;22607;49.550;11.940;2023-12-20T07:05:27;4.85;;;1.67;;
36597;SDS011;22607;49.550;11.940;2023-12-20T07:07:53;4.43;;;1.40;;
36597;SDS011;22607;49.550;11.940;2023-12-20T07:10:20;3.92;;;1.40;;
36597;SDS011;22607;49.550;11.940;2023-12-20T07:12:47;5.07;;;1.67;;
36597;SDS011;22607;49.550;11.940;2023-12-20T07:15:15;4.30;;;1.40;;
36597;SDS011;22607;49.550;11.940;2023-12-20T07:17:41;4.70;;;1.50;;
36597;SDS011;22607;49.550;11.940;2023-12-20T07:20:10;5.43;;;1.92;;
36597;SDS011;22607;49.550;11.940;2023-12-20T07:22:37;5.32;;;1.80;;
36597;SDS011;22607;49.550;11.940;2023-12-20T07:25:04;5.78;;;1.60;;
36597;SDS011;22607;49.550;11.940;2023-12-20T07:27:31;5.13;;;1.38;;
36597;SDS011;22607;49.550;11.940;2023-12-20T07:29:58;3.75;;;1.25;;
36597;SDS011;22607;49.550;11.940;2023-12-20T07:32:24;3.90;;;1.10;;
36597;SDS011;22607;49.550;11.940;2023-12-20T07:34:51;2.88;;;1.08;;
36597;SDS011;22607;49.550;11.940;2023-12-20T07:37:18;2.85;;;1.00;;
36597;SDS011;22607;49.550;11.940;2023-12-20T07:39:45;2.63;;;0.90;;
36597;SDS011;22607;49.550;11.940;2023-12-20T07:42:11;2.72;;;0.90;;
36597;SDS011;22607;49.550;11.940;2023-12-20T07:44:45;2.70;;;1.00;;
36597;SDS011;22607;49.550;11.940;2023-12-20T07:47:11;3.83;;;1.40;;
36597;SDS011;22607;49.550;11.940;2023-12-20T07:49:41;4.28;;;1.13;;
36597;SDS011;22607;49.550;11.940;2023-12-20T07:52:08;2.88;;;1.00;;
36597;SDS011;22607;49.550;11.940;2023-12-20T07:54:35;4.35;;;1.25;;
36597;SDS011;22607;49.550;11.940;2023-12-20T07:57:02;4.90;;;1.48;;
36597;SDS011;22607;49.550;11.940;2023-12-20T07:59:28;4.43;;;1.52;;
36597;SDS011;22607;49.550;11.940;2023-12-20T08:01:58;5.20;;;1.67;;
36597;SDS011;22607;49.550;11.940;2023-12-20T08:04:26;5.40;;;1.92;;
36597;SDS011;22607;49.550;11.940;2023-12-20T08:06:54;6.18;;;2.20;;
36597;SDS011;22607;49.550;11.940;2023-12-20T08:09:21;7.10;;;2.67;;
36597;SDS011;22607;49.550;11.940;2023-12-20T08:11:50;5.93;;;1.88;;
36597;SDS011;22607;49.550;11.940;2023-12-20T08:14:16;8.15;;;2.20;;
36597;SDS011;22607;49.550;11.940;2023-12-20T08:16:43;5.85;;;2.00;;
36597;SDS011;22607;49.550;11.940;2023-12-20T08:19:09;5.88;;;1.88;;
36597;SDS011;22607;49.550;11.940;2023-12-20T08:21:36;6.50;;;2.38;;
36597;SDS011;22607;49.550;11.940;2023-12-20T08:24:04;6.80;;;2.58;;
36597;SDS011;22607;49.550;11.940;2023-12-20T08:26:32;7.72;;;2.38;;
36597;SDS011;22607;49.550;11.940;2023-12-20T08:29:00;6.70;;;2.63;;
36597;SDS011;22607;49.550;11.940;2023-12-20T08:31:27;6.13;;;2.20;;
36597;SDS011;22607;49.550;11.940;2023-12-20T08:33:55;7.13;;;2.60;;
36597;SDS011;22607;49.550;11.940;2023-12-20T08:36:22;7.25;;;2.90;;
36597;SDS011;22607;49.550;11.940;2023-12-20T08:38:50;8.23;;;2.90;;
36597;SDS011;22607;49.550;11.940;2023-12-20T08:41:18;7.78;;;2.92;;
36597;SDS011;22607;49.550;11.940;2023-12-20T08:43:44;7.05;;;2.30;;
36597;SDS011;22607;49.550;11.940;2023-12-20T08:46:11;8.40;;;3.28;;
36597;SDS011;22607;49.550;11.940;2023-12-20T08:48:38;7.78;;;2.83;;
36597;SDS011;22607;49.550;11.940;2023-12-20T08:51:13;7.93;;;3.33;;
36597;SDS011;22607;49.550;11.940;2023-12-20T08:53:40;8.27;;;2.80;;
36597;SDS011;22607;49.550;11.940;2023-12-20T08:56:07;7.10;;;2.90;;
36597;SDS011;22607;49.550;11.940;2023-12-20T08:58:34;8.18;;;3.28;;
36597;SDS011;22607;49.550;11.940;2023-12-20T09:01:02;8.48;;;3.53;;
36597;SDS011;22607;49.550;11.940;2023-12-20T09:03:29;7.80;;;3.08;;
36597;SDS011;22607;49.550;11.940;2023-12-20T09:05:55;7.80;;;3.30;;
36597;SDS011;22607;49.550;11.940;2023-12-20T09:08:22;8.07;;;3.50;;
36597;SDS011;22607;49.550;11.940;2023-12-20T09:10:48;8.70;;;3.50;;
36597;SDS011;22607;49.550;11.940;2023-12-20T09:13:15;9.45;;;3.25;;
36597;SDS011;22607;49.550;11.940;2023-12-20T09:15:42;8.93;;;4.30;;
36597;SDS011;22607;49.550;11.940;2023-12-20T09:18:08;7.70;;;3.22;;
36597;SDS011;22607;49.550;11.940;2023-12-20T09:20:35;9.73;;;3.78;;
36597;SDS011;22607;49.550;11.940;2023-12-20T09:23:04;7.22;;;3.08;;
36597;SDS011;22607;49.550;11.940;2023-12-20T09:25:30;6.80;;;2.55;;
36597;SDS011;22607;49.550;11.940;2023-12-20T09:27:57;7.25;;;3.03;;
36597;SDS011;22607;49.550;11.940;2023-12-20T09:30:24;7.47;;;3.10;;
36597;SDS011;22607;49.550;11.940;2023-12-20T09:32:54;7.50;;;3.08;;
36597;SDS011;22607;49.550;11.940;2023-12-20T09:35:22;7.28;;;2.53;;
36597;SDS011;22607;49.550;11.940;2023-12-20T09:37:49;8.50;;;3.00;;
36597;SDS011;22607;49.550;11.940;2023-12-20T09:40:20;7.90;;;2.88;;
36597;SDS011;22607;49.550;11.940;2023-12-20T09:45:25;7.03;;;3.17;;
36597;SDS011;22607;49.550;11.940;2023-12-20T09:47:52;7.40;;;2.35;;
36597;SDS011;22607;49.550;11.940;2023-12-20T09:50:21;6.90;;;2.67;;
36597;SDS011;22607;49.550;11.940;2023-12-20T09:52:51;7.50;;;2.58;;
36597;SDS011;22607;49.550;11.940;2023-12-20T09:55:19;6.13;;;2.15;;
36597;SDS011;22607;49.550;11.940;2023-12-20T09:57:47;5.43;;;1.92;;
36597;SDS011;22607;49.550;11.940;2023-12-20T10:00:15;5.22;;;1.67;;
36597;SDS011;22607;49.550;11.940;2023-12-20T10:02:43;5.72;;;1.70;;
36597;SDS011;22607;49.550;11.940;2023-12-20T10:05:16;4.57;;;1.50;;
36597;SDS011;22607;49.550;11.940;2023-12-20T10:07:47;4.97;;;1.33;;
36597;SDS011;22607;49.550;11.940;2023-12-20T10:10:14;4.68;;;1.48;;
36597;SDS011;22607;49.550;11.940;2023-12-20T10:12:42;3.95;;;1.40;;
36597;SDS011;22607;49.550;11.940;2023-12-20T10:15:27;4.40;;;1.17;;
36597;SDS011;22607;49.550;11.940;2023-12-20T10:17:54;4.07;;;1.30;;
36597;SDS011;22607;49.550;11.940;2023-12-20T10:20:27;4.35;;;1.27;;
36597;SDS011;22607;49.550;11.940;2023-12-20T10:22:56;4.00;;;1.25;;
36597;SDS011;22607;49.550;11.940;2023-12-20T10:25:24;4.38;;;1.25;;
36597;SDS011;22607;49.550;11.940;2023-12-20T10:28:13;2.40;;;1.05;;
36597;SDS011;22607;49.550;11.940;2023-12-20T10:30:47;4.47;;;1.20;;
36597;SDS011;22607;49.550;11.940;2023-12-20T10:33:24;3.53;;;1.00;;
36597;SDS011;22607;49.550;11.940;2023-12-20T10:35:53;4.70;;;1.20;;
36597;SDS011;22607;49.550;11.940;2023-12-20T10:38:20;4.28;;;1.40;;
36597;SDS011;22607;49.550;11.940;2023-12-20T10:40:46;4.72;;;1.40;;
36597;SDS011;22607;49.550;11.940;2023-12-20T10:43:13;5.78;;;1.40;;
36597;SDS011;22607;49.550;11.940;2023-12-20T10:45:41;5.18;;;1.38;;
36597;SDS011;22607;49.550;11.940;2023-12-20T10:48:11;6.38;;;1.42;;
36597;SDS011;22607;49.550;11.940;2023-12-20T10:50:38;5.13;;;1.20;;
36597;SDS011;22607;49.550;11.940;2023-12-20T10:53:08;9.93;;;1.90;;
36597;SDS011;22607;49.550;11.940;2023-12-20T10:55:34;6.65;;;1.95;;
36597;SDS011;22607;49.550;11.940;2023-12-20T10:58:01;5.20;;;1.20;;
36597;SDS011;22607;49.550;11.940;2023-12-20T11:00:33;5.57;;;1.42;;
36597;SDS011;22607;49.550;11.940;2023-12-20T11:03:05;6.78;;;2.25;;
36597;SDS011;22607;49.550;11.940;2023-12-20T11:05:42;5.75;;;1.55;;
36597;SDS011;22607;49.550;11.940;2023-12-20T11:08:36;7.57;;;1.90;;
36597;SDS011;22607;49.550;11.940;2023-12-20T11:11:15;6.43;;;1.63;;
36597;SDS011;22607;49.550;11.940;2023-12-20T11:14:08;7.10;;;1.70;;
36597;SDS011;22607;49.550;11.940;2023-12-20T11:16:43;7.18;;;2.00;;
36597;SDS011;22607;49.550;11.940;2023-12-20T11:19:20;8.60;;;2.22;;
36597;SDS011;22607;49.550;11.940;2023-12-20T11:21:47;8.60;;;2.10;;
36597;SDS011;22607;49.550;11.940;2023-12-20T11:24:15;7.13;;;2.10;;
36597;SDS011;22607;49.550;11.940;2023-12-20T11:26:46;8.73;;;1.75;;
36597;SDS011;22607;49.550;11.940;2023-12-20T11:29:33;6.70;;;1.77;;
36597;SDS011;22607;49.550;11.940;2023-12-20T11:32:03;7.72;;;2.00;;
36597;SDS011;22607;49.550;11.940;2023-12-20T11:34:54;10.10;;;1.90;;
36597;SDS011;22607;49.550;11.940;2023-12-20T11:37:22;6.57;;;2.00;;
36597;SDS011;22607;49.550;11.940;2023-12-20T11:39:55;8.50;;;2.40;;
36597;SDS011;22607;49.550;11.940;2023-12-20T11:42:23;7.57;;;2.17;;
36597;SDS011;22607;49.550;11.940;2023-12-20T11:44:50;8.27;;;1.95;;
36597;SDS011;22607;49.550;11.940;2023-12-20T11:47:17;5.97;;;1.60;;
36597;SDS011;22607;49.550;11.940;2023-12-20T11:49:48;6.20;;;1.55;;
36597;SDS011;22607;49.550;11.940;2023-12-20T11:52:15;7.72;;;1.90;;
36597;SDS011;22607;49.550;11.940;2023-12-20T11:54:42;7.20;;;1.65;;
36597;SDS011;22607;49.550;11.940;2023-12-20T11:57:09;7.82;;;1.60;;
36597;SDS011;22607;49.550;11.940;2023-12-20T11:59:36;5.97;;;1.70;;
36597;SDS011;22607;49.550;11.940;2023-12-20T12:02:02;7.60;;;1.98;;
36597;SDS011;22607;49.550;11.940;2023-12-20T12:04:29;8.52;;;2.45;;
36597;SDS011;22607;49.550;11.940;2023-12-20T12:06:56;7.63;;;2.20;;
36597;SDS011;22607;49.550;11.940;2023-12-20T12:09:23;7.30;;;2.30;;
36597;SDS011;22607;49.550;11.940;2023-12-20T12:11:49;10.13;;;2.75;;
36597;SDS011;22607;49.550;11.940;2023-12-20T12:14:16;7.57;;;2.05;;
36597;SDS011;22607;49.550;11.940;2023-12-20T12:16:43;9.73;;;2.40;;
36597;SDS011;22607;49.550;11.940;2023-12-20T12:19:19;9.48;;;2.53;;
36597;SDS011;22607;49.550;11.940;2023-12-20T12:22:13;9.20;;;2.40;;
36597;SDS011;22607;49.550;11.940;2023-12-20T12:24:45;6.43;;;1.70;;
36597;SDS011;22607;49.550;11.940;2023-12-20T12:27:13;7.93;;;1.85;;
36597;SDS011;22607;49.550;11.940;2023-12-20T12:29:40;6.88;;;1.75;;
36597;SDS011;22607;49.550;11.940;2023-12-20T12:32:07;8.93;;;2.20;;
36597;SDS011;22607;49.550;11.940;2023-12-20T12:34:35;13.30;;;2.42;;
36597;SDS011;22607;49.550;11.940;2023-12-20T12:37:06;7.60;;;2.10;;
36597;SDS011;22607;49.550;11.940;2023-12-20T12:39:33;7.27;;;1.83;;
36597;SDS011;22607;49.550;11.940;2023-12-20T12:42:00;10.80;;;2.47;;
36597;SDS011;22607;49.550;11.940;2023-12-20T12:44:27;12.60;;;2.22;;
36597;SDS011;22607;49.550;11.940;2023-12-20T12:46:53;9.18;;;1.90;;
36597;SDS011;22607;49.550;11.940;2023-12-20T12:49:20;8.80;;;1.77;;
36597;SDS011;22607;49.550;11.940;2023-12-20T12:51:48;9.00;;;1.60;;
36597;SDS011;22607;49.550;11.940;2023-12-20T12:54:15;6.60;;;1.55;;
36597;SDS011;22607;49.550;11.940;2023-12-20T12:56:44;8.88;;;1.85;;
36597;SDS011;22607;49.550;11.940;2023-12-20T12:59:13;7.63;;;1.77;;
36597;SDS011;22607;49.550;11.940;2023-12-20T13:01:39;7.68;;;1.48;;
36597;SDS011;22607;49.550;11.940;2023-12-20T13:04:08;8.88;;;1.73;;
36597;SDS011;22607;49.550;11.940;2023-12-20T13:06:37;9.02;;;1.50;;
36597;SDS011;22607;49.550;11.940;2023-12-20T13:09:04;7.47;;;1.60;;
36597;SDS011;22607;49.550;11.940;2023-12-20T13:11:33;6.25;;;2.03;;
36597;SDS011;22607;49.550;11.940;2023-12-20T13:14:01;9.65;;;2.00;;
36597;SDS011;22607;49.550;11.940;2023-12-20T13:16:27;8.25;;;1.85;;
36597;SDS011;22607;49.550;11.940;2023-12-20T13:18:59;7.72;;;2.10;;
36597;SDS011;22607;49.550;11.940;2023-12-20T13:21:26;8.93;;;2.28;;
36597;SDS011;22607;49.550;11.940;2023-12-20T13:23:53;8.60;;;2.38;;
36597;SDS011;22607;49.550;11.940;2023-12-20T13:26:20;13.23;;;2.63;;
36597;SDS011;22607;49.550;11.940;2023-12-20T13:28:47;6.68;;;2.17;;
36597;SDS011;22607;49.550;11.940;2023-12-20T13:31:13;11.23;;;2.08;;
36597;SDS011;22607;49.550;11.940;2023-12-20T13:33:46;10.15;;;2.63;;
36597;SDS011;22607;49.550;11.940;2023-12-20T13:36:13;10.10;;;2.03;;
36597;SDS011;22607;49.550;11.940;2023-12-20T13:38:39;9.05;;;2.45;;
36597;SDS011;22607;49.550;11.940;2023-12-20T13:41:06;8.40;;;2.30;;
36597;SDS011;22607;49.550;11.940;2023-12-20T13:43:34;8.18;;;1.92;;
36597;SDS011;22607;49.550;11.940;2023-12-20T13:46:01;7.68;;;2.20;;
36597;SDS011;22607;49.550;11.940;2023-12-20T13:48:28;8.13;;;1.90;;
36597;SDS011;22607;49.550;11.940;2023-12-20T13:50:59;9.32;;;1.90;;
36597;SDS011;22607;49.550;11.940;2023-12-20T13:53:27;7.28;;;1.85;;
36597;SDS011;22607;49.550;11.940;2023-12-20T13:55:54;6.53;;;1.90;;
36597;SDS011;22607;49.550;11.940;2023-12-20T13:58:21;7.55;;;1.55;;
36597;SDS011;22607;49.550;11.940;2023-12-20T14:00:48;6.03;;;1.52;;
36597;SDS011;22607;49.550;11.940;2023-12-20T14:03:16;6.35;;;1.63;;
36597;SDS011;22607;49.550;11.940;2023-12-20T14:05:42;7.18;;;1.98;;
36597;SDS011;22607;49.550;11.940;2023-12-20T14:08:09;6.68;;;1.80;;
36597;SDS011;22607;49.550;11.940;2023-12-20T14:10:36;5.93;;;1.85;;
36597;SDS011;22607;49.550;11.940;2023-12-20T14:13:03;9.45;;;2.30;;
36597;SDS011;22607;49.550;11.940;2023-12-20T14:15:29;9.55;;;1.98;;
36597;SDS011;22607;49.550;11.940;2023-12-20T14:17:56;7.38;;;2.05;;
36597;SDS011;22607;49.550;11.940;2023-12-20T14:20:23;7.57;;;2.45;;
36597;SDS011;22607;49.550;11.940;2023-12-20T14:22:49;9.43;;;2.35;;
36597;SDS011;22607;49.550;11.940;2023-12-20T14:25:17;9.85;;;2.67;;
36597;SDS011;22607;49.550;11.940;2023-12-20T14:27:44;11.85;;;2.80;;
36597;SDS011;22607;49.550;11.940;2023-12-20T14:30:13;8.82;;;2.60;;
36597;SDS011;22607;49.550;11.940;2023-12-20T14:32:41;9.55;;;2.28;;
36597;SDS011;22607;49.550;11.940;2023-12-20T14:35:08;9.02;;;2.75;;
36597;SDS011;22607;49.550;11.940;2023-12-20T14:37:35;7.93;;;3.00;;
36597;SDS011;22607;49.550;11.940;2023-12-20T14:40:07;9.88;;;3.42;;
36597;SDS011;22607;49.550;11.940;2023-12-20T14:42:42;9.82;;;2.58;;
36597;SDS011;22607;49.550;11.940;2023-12-20T14:45:16;8.10;;;2.20;;
36597;SDS011;22607;49.550;11.940;2023-12-20T14:47:43;8.52;;;2.53;;
36597;SDS011;22607;49.550;11.940;2023-12-20T14:50:11;8.90;;;2.10;;
36597;SDS011;22607;49.550;11.940;2023-12-20T14:52:44;9.80;;;2.45;;
36597;SDS011;22607;49.550;11.940;2023-12-20T14:55:12;8.95;;;2.55;;
36597;SDS011;22607;49.550;11.940;2023-12-20T14:57:38;9.05;;;2.72;;
36597;SDS011;22607;49.550;11.940;2023-12-20T15:00:11;8.77;;;2.20;;
36597;SDS011;22607;49.550;11.940;2023-12-20T15:02:42;8.38;;;2.40;;
36597;SDS011;22607;49.550;11.940;2023-12-20T15:05:09;7.05;;;2.30;;
36597;SDS011;22607;49.550;11.940;2023-12-20T15:07:36;7.57;;;2.60;;
36597;SDS011;22607;49.550;11.940;2023-12-20T15:10:03;8.20;;;2.10;;
36597;SDS011;22607;49.550;11.940;2023-12-20T15:12:30;10.82;;;2.90;;
36597;SDS011;22607;49.550;11.940;2023-12-20T15:14:56;10.57;;;2.10;;
36597;SDS011;22607;49.550;11.940;2023-12-20T15:17:23;8.23;;;1.60;;
36597;SDS011;22607;49.550;11.940;2023-12-20T15:19:49;8.68;;;1.80;;
36597;SDS011;22607;49.550;11.940;2023-12-20T15:22:16;8.07;;;1.88;;
36597;SDS011;22607;49.550;11.940;2023-12-20T15:24:43;11.30;;;1.95;;
36597;SDS011;22607;49.550;11.940;2023-12-20T15:27:12;8.07;;;2.40;;
36597;SDS011;22607;49.550;11.940;2023-12-20T15:29:40;10.23;;;2.83;;
36597;SDS011;22607;49.550;11.940;2023-12-20T15:32:09;9.27;;;1.70;;
36597;SDS011;22607;49.550;11.940;2023-12-20T15:34:39;6.10;;;1.85;;
36597;SDS011;22607;49.550;11.940;2023-12-20T15:37:06;5.30;;;1.50;;
36597;SDS011;22607;49.550;11.940;2023-12-20T15:39:33;8.80;;;1.52;;
36597;SDS011;22607;49.550;11.940;2023-12-20T15:41:59;11.50;;;2.25;;
36597;SDS011;22607;49.550;11.940;2023-12-20T15:44:26;7.18;;;1.90;;
36597;SDS011;22607;49.550;11.940;2023-12-20T15:46:52;8.90;;;2.13;;
36597;SDS011;22607;49.550;11.940;2023-12-20T15:49:20;8.13;;;2.42;;
36597;SDS011;22607;49.550;11.940;2023-12-20T15:51:47;8.38;;;1.63;;
36597;SDS011;22607;49.550;11.940;2023-12-20T15:54:14;8.13;;;2.28;;
36597;SDS011;22607;49.550;11.940;2023-12-20T15:56:47;7.95;;;2.00;;
36597;SDS011;22607;49.550;11.940;2023-12-20T15:59:14;9.50;;;2.58;;
36597;SDS011;22607;49.550;11.940;2023-12-20T16:01:40;8.70;;;2.33;;
36597;SDS011;22607;49.550;11.940;2023-12-20T16:04:07;7.47;;;2.03;;
36597;SDS011;22607;49.550;11.940;2023-12-20T16:06:34;8.95;;;2.08;;
36597;SDS011;22607;49.550;11.940;2023-12-20T16:09:01;8.13;;;2.28;;